createdAt,value
2023-04-15T00:02:00.259Z,2.75
2023-04-15T00:04:28.465Z,1.85
2023-04-15T00:06:55.954Z,1.63
2023-04-15T00:09:23.150Z,2.85
2023-04-15T00:11:51.315Z,2.17
2023-04-15T00:14:18.580Z,2.00
2023-04-15T00:16:45.871Z,1.25
2023-04-15T00:19:13.326Z,5.57
2023-04-15T00:21:40.798Z,4.45
2023-04-15T00:24:07.907Z,1.67
2023-04-15T00:26:35.826Z,2.92
2023-04-15T00:29:03.036Z,2.28
2023-04-15T00:31:31.555Z,4.28
2023-04-15T00:33:59.816Z,5.30
2023-04-15T00:36:27.051Z,3.95
2023-04-15T00:38:54.199Z,2.55
2023-04-15T00:41:21.445Z,2.63
2023-04-15T00:43:48.923Z,5.10
2023-04-15T00:46:17.795Z,2.38
2023-04-15T00:48:46.017Z,2.85
2023-04-15T00:51:14.011Z,2.33
2023-04-15T00:53:41.295Z,1.83
2023-04-15T00:56:09.006Z,1.73
2023-04-15T00:58:37.196Z,2.80
2023-04-15T01:01:04.819Z,3.42
2023-04-15T01:03:32.151Z,3.30
2023-04-15T01:06:03.408Z,3.28
2023-04-15T01:08:31.934Z,1.88
2023-04-15T01:11:03.674Z,2.25
2023-04-15T01:13:31.560Z,2.03
2023-04-15T01:15:58.820Z,2.95
2023-04-15T01:18:26.469Z,3.08
2023-04-15T01:20:53.814Z,1.88
2023-04-15T01:23:24.584Z,1.52
2023-04-15T01:25:53.626Z,1.73
2023-04-15T01:28:20.797Z,2.80
2023-04-15T01:30:48.552Z,4.75
2023-04-15T01:33:16.228Z,3.15
2023-04-15T01:35:44.612Z,2.38
2023-04-15T01:38:13.721Z,3.50
2023-04-15T01:40:41.060Z,1.15
2023-04-15T01:43:08.345Z,2.28
2023-04-15T01:45:35.528Z,1.95
2023-04-15T01:48:04.666Z,2.55
2023-04-15T01:50:31.889Z,3.03
2023-04-15T01:52:59.041Z,3.47
2023-04-15T01:55:26.263Z,2.70
2023-04-15T01:57:53.660Z,3.35
2023-04-15T02:00:22.433Z,2.42
2023-04-15T02:02:49.946Z,3.85
2023-04-15T02:05:17.188Z,1.60
2023-04-15T02:07:48.571Z,2.65
2023-04-15T02:10:16.893Z,4.22
2023-04-15T02:12:44.341Z,3.53
2023-04-15T02:15:11.931Z,1.52
2023-04-15T02:17:39.160Z,1.17
2023-04-15T02:20:09.021Z,2.78
2023-04-15T02:22:36.204Z,4.25
2023-04-15T02:25:03.573Z,3.72
2023-04-15T02:27:32.982Z,1.40
2023-04-15T02:30:00.763Z,3.15
2023-04-15T02:32:29.125Z,3.40
2023-04-15T02:34:56.475Z,3.35
2023-04-15T02:37:24.844Z,2.00
2023-04-15T02:39:52.009Z,3.45
2023-04-15T02:42:21.756Z,2.35
2023-04-15T02:44:50.013Z,5.70
2023-04-15T02:47:18.193Z,2.70
2023-04-15T02:49:45.676Z,1.92
2023-04-15T02:52:14.050Z,5.20
2023-04-15T02:54:41.278Z,5.03
2023-04-15T02:57:08.482Z,2.22
2023-04-15T02:59:35.756Z,2.13
2023-04-15T03:02:03.190Z,4.45
2023-04-15T03:04:31.031Z,2.97
2023-04-15T03:06:58.232Z,7.75
2023-04-15T03:09:26.776Z,2.53
2023-04-15T03:11:55.012Z,1.92
2023-04-15T03:14:22.911Z,3.90
2023-04-15T03:16:52.015Z,2.30
2023-04-15T03:19:19.391Z,3.42
2023-04-15T03:21:46.581Z,4.28
2023-04-15T03:24:14.325Z,3.42
2023-04-15T03:26:41.464Z,4.65
2023-04-15T03:29:12.614Z,4.53
2023-04-15T03:31:40.635Z,6.97
2023-04-15T03:34:07.856Z,3.97
2023-04-15T03:36:35.912Z,5.13
2023-04-15T03:39:03.391Z,4.00
2023-04-15T03:41:31.056Z,4.95
2023-04-15T03:43:58.253Z,6.90
2023-04-15T03:46:25.804Z,3.83
2023-04-15T03:48:52.891Z,6.15
2023-04-15T03:51:20.050Z,3.40
2023-04-15T03:53:47.195Z,7.20
2023-04-15T03:56:14.444Z,7.03
2023-04-15T03:58:41.596Z,9.60
2023-04-15T04:01:08.779Z,7.57
2023-04-15T04:03:37.458Z,4.43
2023-04-15T04:06:04.916Z,11.65
2023-04-15T04:08:32.142Z,8.00
2023-04-15T04:10:59.277Z,5.07
2023-04-15T04:13:26.435Z,5.32
2023-04-15T04:15:53.628Z,3.15
2023-04-15T04:18:20.954Z,4.93
2023-04-15T04:20:48.260Z,5.40
2023-04-15T04:23:15.621Z,4.05
2023-04-15T04:25:43.749Z,6.72
2023-04-15T04:28:11.787Z,6.97
2023-04-15T04:30:38.948Z,11.77
2023-04-15T04:33:06.909Z,7.82
2023-04-15T04:35:35.146Z,7.60
2023-04-15T04:38:02.244Z,11.43
2023-04-15T04:40:29.394Z,12.48
2023-04-15T04:42:56.837Z,7.18
2023-04-15T04:45:23.978Z,9.60
2023-04-15T04:47:51.318Z,6.93
2023-04-15T04:50:18.573Z,11.05
2023-04-15T04:52:45.755Z,14.63
2023-04-15T04:55:13.387Z,9.40
2023-04-15T04:57:40.610Z,6.13
2023-04-15T05:00:09.134Z,6.93
2023-04-15T05:02:37.036Z,6.60
2023-04-15T05:05:04.542Z,6.25
2023-04-15T05:07:31.985Z,5.63
2023-04-15T05:09:59.102Z,4.40
2023-04-15T05:12:26.353Z,6.80
2023-04-15T05:14:53.469Z,6.43
2023-04-15T05:17:20.805Z,4.32
2023-04-15T05:19:48.323Z,2.83
2023-04-15T05:22:15.653Z,4.78
2023-04-15T05:24:42.760Z,4.82
2023-04-15T05:27:11.724Z,4.38
2023-04-15T05:29:39.538Z,4.75
2023-04-15T05:32:07.152Z,9.73
2023-04-15T05:34:34.284Z,7.07
2023-04-15T05:37:01.484Z,6.32
2023-04-15T05:39:28.726Z,7.00
2023-04-15T05:41:55.913Z,9.27
2023-04-15T05:44:23.135Z,8.77
2023-04-15T05:46:50.289Z,9.73
2023-04-15T05:49:17.328Z,8.48
2023-04-15T05:51:44.531Z,10.65
2023-04-15T05:54:11.861Z,12.55
2023-04-15T05:56:39.086Z,12.77
2023-04-15T05:59:06.716Z,19.10
2023-04-15T06:01:34.488Z,35.70
2023-04-15T06:04:02.020Z,32.45
2023-04-15T06:06:29.298Z,31.92
2023-04-15T06:08:56.538Z,37.30
2023-04-15T06:11:23.969Z,32.40
2023-04-15T06:13:51.241Z,33.63
2023-04-15T06:16:18.457Z,27.00
2023-04-15T06:18:45.861Z,27.30
2023-04-15T06:21:13.032Z,23.20
2023-04-15T06:23:41.476Z,25.05
2023-04-15T06:26:08.889Z,35.58
2023-04-15T06:28:36.300Z,22.52
2023-04-15T06:31:03.769Z,26.50
2023-04-15T06:33:31.853Z,25.40
2023-04-15T06:35:59.007Z,34.67
2023-04-15T06:38:26.605Z,16.20
2023-04-15T06:40:53.869Z,15.98
2023-04-15T06:43:21.030Z,15.35
2023-04-15T06:45:48.148Z,17.17
2023-04-15T06:48:15.584Z,15.95
2023-04-15T06:50:42.972Z,11.38
2023-04-15T06:53:10.118Z,17.23
2023-04-15T06:55:37.278Z,11.00
2023-04-15T06:58:04.647Z,9.00
2023-04-15T07:00:33.830Z,15.85
2023-04-15T07:03:04.900Z,20.52
2023-04-15T07:05:32.706Z,15.07
2023-04-15T07:08:00.550Z,16.60
2023-04-15T07:10:27.658Z,17.85
2023-04-15T07:12:54.880Z,22.45
2023-04-15T07:15:22.515Z,25.25
2023-04-15T07:17:49.769Z,29.58
2023-04-15T07:20:17.117Z,21.00
2023-04-15T07:22:45.394Z,28.00
2023-04-15T07:25:12.706Z,22.08
2023-04-15T07:27:39.876Z,16.50
2023-04-15T07:30:07.778Z,14.95
2023-04-15T07:32:35.105Z,15.30
2023-04-15T07:35:03.890Z,11.77
2023-04-15T07:37:31.525Z,10.52
2023-04-15T07:39:58.697Z,10.75
2023-04-15T07:42:25.909Z,11.30
2023-04-15T07:44:53.110Z,9.27
2023-04-15T07:47:20.294Z,12.95
2023-04-15T07:49:47.517Z,8.00
2023-04-15T07:52:14.636Z,9.57
2023-04-15T07:54:42.057Z,5.68
2023-04-15T07:57:09.313Z,7.53
2023-04-15T07:59:36.621Z,8.18
2023-04-15T08:02:04.263Z,10.77
2023-04-15T08:04:31.737Z,7.15
2023-04-15T08:06:59.152Z,7.63
2023-04-15T08:09:27.286Z,6.78
2023-04-15T08:11:54.582Z,8.18
2023-04-15T08:14:21.790Z,6.97
2023-04-15T08:16:49.190Z,7.28
2023-04-15T08:19:16.501Z,6.70
2023-04-15T08:21:43.623Z,7.35
2023-04-15T08:24:11.621Z,5.90
2023-04-15T08:26:38.775Z,5.60
2023-04-15T08:29:05.973Z,5.28
2023-04-15T08:31:33.660Z,3.90
2023-04-15T08:34:00.959Z,4.38
2023-04-15T08:36:28.619Z,3.17
2023-04-15T08:38:56.259Z,2.17
2023-04-15T08:41:25.527Z,2.38
2023-04-15T08:43:57.030Z,1.58
2023-04-15T08:46:24.529Z,2.58
2023-04-15T08:48:52.608Z,1.85
2023-04-15T08:51:20.590Z,3.67
2023-04-15T08:53:48.036Z,1.88
2023-04-15T08:56:17.003Z,2.20
2023-04-15T08:58:45.165Z,2.67
2023-04-15T09:01:13.584Z,3.28
2023-04-15T09:03:42.019Z,1.73
2023-04-15T09:06:09.727Z,2.83
2023-04-15T09:08:36.886Z,1.55
2023-04-15T09:11:04.637Z,2.70
2023-04-15T09:13:32.198Z,2.58
2023-04-15T09:16:02.214Z,3.20
2023-04-15T09:18:35.181Z,2.42
2023-04-15T09:21:09.007Z,2.00
2023-04-15T09:23:37.322Z,2.38
2023-04-15T09:26:05.899Z,3.03
2023-04-15T09:28:33.642Z,2.78
2023-04-15T09:31:01.990Z,2.13
2023-04-15T09:33:30.344Z,3.28
2023-04-15T09:36:05.300Z,3.30
2023-04-15T09:38:33.023Z,2.78
2023-04-15T09:41:00.286Z,2.03
2023-04-15T09:43:40.988Z,3.67
2023-04-15T09:46:08.314Z,3.40
2023-04-15T09:48:36.601Z,2.20
2023-04-15T09:51:03.983Z,2.75
2023-04-15T09:53:35.160Z,4.03
2023-04-15T09:56:03.534Z,1.95
2023-04-15T09:58:33.776Z,4.60
2023-04-15T10:01:06.574Z,3.22
2023-04-15T10:03:37.742Z,4.65
2023-04-15T10:06:08.097Z,3.63
2023-04-15T10:08:35.629Z,3.03
2023-04-15T10:11:03.990Z,2.13
2023-04-15T10:13:37.518Z,2.20
2023-04-15T10:16:12.153Z,3.05
2023-04-15T10:18:44.447Z,1.67
2023-04-15T10:21:14.006Z,2.95
2023-04-15T10:23:41.527Z,4.35
2023-04-15T10:26:10.305Z,3.20
2023-04-15T10:28:37.554Z,2.63
2023-04-15T10:31:06.347Z,3.05
2023-04-15T10:33:35.327Z,2.92
2023-04-15T10:36:03.070Z,1.85
2023-04-15T10:38:45.533Z,2.63
2023-04-15T10:45:39.704Z,4.10
2023-04-15T10:48:10.139Z,4.00
2023-04-15T10:50:39.568Z,1.40
2023-04-15T10:53:10.295Z,2.15
2023-04-15T10:55:37.537Z,4.57
2023-04-15T10:58:04.680Z,4.95
2023-04-15T11:00:33.320Z,1.60
2023-04-15T11:03:08.133Z,2.22
2023-04-15T11:05:52.967Z,1.48
2023-04-15T11:08:22.107Z,1.00
2023-04-15T11:10:49.158Z,1.38
2023-04-15T11:13:18.328Z,2.15
2023-04-15T11:15:47.063Z,2.67
2023-04-15T11:18:16.883Z,2.25
2023-04-15T11:20:50.931Z,1.42
2023-04-15T11:23:34.402Z,1.98
2023-04-15T11:26:06.949Z,2.78
2023-04-15T11:28:35.540Z,2.10
2023-04-15T11:31:13.073Z,1.60
2023-04-15T11:34:01.627Z,1.33
2023-04-15T11:36:32.618Z,2.47
2023-04-15T11:39:00.566Z,2.13
2023-04-15T11:41:27.971Z,1.45
2023-04-15T11:43:55.576Z,2.13
2023-04-15T11:46:30.941Z,1.95
2023-04-15T11:48:58.574Z,1.77
2023-04-15T11:51:26.049Z,1.52
2023-04-15T11:53:53.391Z,1.33
2023-04-15T11:56:25.788Z,2.45
2023-04-15T11:58:57.403Z,2.72
2023-04-15T12:01:44.082Z,2.65
2023-04-15T12:04:13.706Z,3.38
2023-04-15T12:06:41.442Z,2.45
2023-04-15T12:09:15.513Z,2.80
2023-04-15T12:11:51.571Z,4.35
2023-04-15T12:14:32.239Z,2.03
2023-04-15T12:17:02.192Z,3.15
2023-04-15T12:19:32.580Z,4.43
2023-04-15T12:22:05.437Z,3.90
2023-04-15T12:24:34.678Z,2.35
2023-04-15T12:27:10.189Z,2.72
2023-04-15T12:29:39.346Z,4.00
2023-04-15T12:32:09.409Z,3.60
2023-04-15T12:34:40.623Z,3.72
2023-04-15T12:37:10.514Z,5.18
2023-04-15T12:39:42.417Z,4.88
2023-04-15T12:42:10.957Z,4.00
2023-04-15T12:44:39.333Z,3.10
2023-04-15T12:47:09.400Z,5.55
2023-04-15T12:49:37.795Z,3.08
2023-04-15T12:52:05.319Z,3.40
2023-04-15T12:54:32.945Z,2.47
2023-04-15T12:57:01.098Z,2.08
2023-04-15T12:59:29.089Z,2.15
2023-04-15T13:01:56.440Z,2.35
2023-04-15T13:04:24.070Z,3.33
2023-04-15T13:06:51.623Z,3.67
2023-04-15T13:09:18.930Z,2.80
2023-04-15T13:11:46.485Z,3.22
2023-04-15T13:14:13.686Z,3.65
2023-04-15T13:16:41.550Z,4.15
2023-04-15T13:19:09.361Z,2.35
2023-04-15T13:21:36.793Z,3.13
2023-04-15T13:24:07.194Z,2.08
2023-04-15T13:26:34.717Z,3.42
2023-04-15T13:29:02.093Z,2.15
2023-04-15T13:31:29.382Z,1.75
2023-04-15T13:33:57.811Z,2.78
2023-04-15T13:36:26.514Z,2.00
2023-04-15T13:38:53.964Z,1.73
2023-04-15T13:41:21.425Z,2.20
2023-04-15T13:43:48.737Z,1.98
2023-04-15T13:46:16.332Z,1.63
2023-04-15T13:48:43.938Z,2.45
2023-04-15T13:51:11.307Z,1.55
2023-04-15T13:53:39.612Z,2.80
2023-04-15T13:56:10.983Z,1.55
2023-04-15T13:58:38.754Z,2.47
2023-04-15T14:01:07.469Z,1.38
2023-04-15T14:03:37.020Z,1.00
2023-04-15T14:06:05.879Z,2.35
2023-04-15T14:08:33.443Z,1.45
2023-04-15T14:11:00.867Z,3.25
2023-04-15T14:13:28.556Z,1.77
2023-04-15T14:15:57.025Z,1.63
2023-04-15T14:18:24.375Z,1.13
2023-04-15T14:20:51.927Z,1.17
2023-04-15T14:23:19.637Z,2.60
2023-04-15T14:25:48.371Z,3.05
2023-04-15T14:28:16.229Z,1.80
2023-04-15T14:30:43.981Z,2.40
2023-04-15T14:33:11.321Z,1.67
2023-04-15T14:35:39.237Z,3.38
2023-04-15T14:38:10.632Z,1.45
2023-04-15T14:40:38.163Z,2.22
2023-04-15T14:43:05.288Z,1.05
2023-04-15T14:45:32.486Z,2.08
2023-04-15T14:47:59.990Z,2.05
2023-04-15T14:50:27.298Z,1.50
2023-04-15T14:52:54.425Z,1.33
2023-04-15T14:55:21.762Z,1.67
2023-04-15T14:57:48.992Z,2.58
2023-04-15T15:00:16.565Z,1.73
2023-04-15T15:02:44.049Z,1.85
2023-04-15T15:05:12.314Z,3.63
2023-04-15T15:07:41.164Z,1.10
2023-04-15T15:10:08.868Z,3.38
2023-04-15T15:12:36.490Z,1.52
2023-04-15T15:15:12.261Z,0.90
2023-04-15T15:17:43.281Z,0.90
2023-04-15T15:20:10.993Z,1.27
2023-04-15T15:22:38.417Z,3.25
2023-04-15T15:25:06.121Z,1.65
2023-04-15T15:27:33.321Z,1.33
2023-04-15T15:30:00.782Z,1.42
2023-04-15T15:32:28.147Z,2.40
2023-04-15T15:34:55.425Z,2.92
2023-04-15T15:37:22.600Z,1.63
2023-04-15T15:39:50.865Z,1.42
2023-04-15T15:42:19.794Z,1.60
2023-04-15T15:44:49.288Z,2.03
2023-04-15T15:47:17.073Z,1.33
2023-04-15T15:49:44.599Z,0.70
2023-04-15T15:52:12.069Z,1.65
2023-04-15T15:54:41.289Z,2.30
2023-04-15T15:57:08.660Z,1.70
2023-04-15T15:59:36.321Z,1.70
2023-04-15T16:02:03.660Z,0.75
2023-04-15T16:04:31.379Z,1.05
2023-04-15T16:06:58.721Z,2.08
2023-04-15T16:09:25.973Z,2.08
2023-04-15T16:11:53.369Z,1.23
2023-04-15T16:14:21.694Z,1.20
2023-04-15T16:16:49.029Z,2.40
2023-04-15T16:19:19.046Z,3.40
2023-04-15T16:21:46.831Z,1.00
2023-04-15T16:24:15.680Z,2.50
2023-04-15T16:26:43.058Z,1.48
2023-04-15T16:29:10.371Z,1.25
2023-04-15T16:31:39.977Z,3.67
2023-04-15T16:34:07.343Z,1.27
2023-04-15T16:36:36.116Z,2.00
2023-04-15T16:39:10.341Z,2.20
2023-04-15T16:41:38.688Z,1.73
2023-04-15T16:44:08.490Z,1.63
2023-04-15T16:46:38.161Z,3.75
2023-04-15T16:49:07.116Z,2.17
2023-04-15T16:51:34.823Z,2.03
2023-04-15T16:54:02.817Z,3.22
2023-04-15T16:56:30.287Z,2.20
2023-04-15T16:58:57.950Z,3.08
2023-04-15T17:01:28.914Z,1.83
2023-04-15T17:03:57.013Z,1.65
2023-04-15T17:06:24.838Z,2.35
2023-04-15T17:08:52.368Z,1.83
2023-04-15T17:11:20.427Z,3.00
2023-04-15T17:13:51.073Z,3.50
2023-04-15T17:16:19.127Z,2.80
2023-04-15T17:18:47.788Z,1.40
2023-04-15T17:21:16.625Z,1.98
2023-04-15T17:23:44.123Z,2.85
2023-04-15T17:26:11.758Z,2.92
2023-04-15T17:28:39.668Z,2.88
2023-04-15T17:31:07.410Z,2.75
2023-04-15T17:33:59.906Z,1.67
2023-04-15T17:36:23.763Z,2.97
2023-04-15T17:38:53.898Z,3.15
2023-04-15T17:41:21.537Z,2.10
2023-04-15T17:43:48.943Z,3.53
2023-04-15T17:46:16.803Z,1.98
2023-04-15T17:48:44.381Z,2.35
2023-04-15T17:51:13.619Z,1.90
2023-04-15T17:53:42.004Z,1.75
2023-04-15T17:56:09.692Z,1.27
2023-04-15T17:58:40.338Z,4.90
2023-04-15T18:01:07.876Z,2.10
2023-04-15T18:03:35.410Z,1.95
2023-04-15T18:06:03.520Z,2.22
2023-04-15T18:08:32.500Z,2.13
2023-04-15T18:11:02.419Z,1.58
2023-04-15T18:13:29.950Z,3.08
2023-04-15T18:15:57.795Z,1.70
2023-04-15T18:18:25.432Z,1.85
2023-04-15T18:20:55.559Z,1.38
2023-04-15T18:23:23.519Z,1.30
2023-04-15T18:25:51.529Z,1.77
2023-04-15T18:28:19.158Z,1.75
2023-04-15T18:30:46.812Z,2.00
2023-04-15T18:33:17.010Z,1.70
2023-04-15T18:35:44.730Z,2.42
2023-04-15T18:38:12.809Z,1.63
2023-04-15T18:40:40.424Z,1.52
2023-04-15T18:43:09.620Z,5.95
2023-04-15T18:45:37.281Z,5.15
2023-04-15T18:48:05.549Z,3.38
2023-04-15T18:50:33.622Z,1.85
2023-04-15T18:53:01.509Z,2.85
2023-04-15T18:55:29.599Z,2.17
2023-04-15T18:57:57.057Z,1.77
2023-04-15T19:00:39.336Z,2.00
2023-04-15T19:03:07.829Z,2.25
2023-04-15T19:05:38.971Z,2.55
2023-04-15T19:08:07.541Z,2.03
2023-04-15T19:10:35.731Z,2.20
2023-04-15T19:13:04.588Z,2.03
2023-04-15T19:15:32.477Z,2.35
2023-04-15T19:18:05.011Z,2.88
2023-04-15T19:20:35.646Z,3.53
2023-04-15T19:23:05.202Z,2.00
2023-04-15T19:25:33.190Z,2.40
2023-04-15T19:28:01.186Z,2.92
2023-04-15T19:30:29.061Z,3.22
2023-04-15T19:32:57.159Z,2.58
2023-04-15T19:35:25.285Z,2.78
2023-04-15T19:37:52.845Z,4.93
2023-04-15T19:40:20.359Z,2.00
2023-04-15T19:42:47.943Z,2.13
2023-04-15T19:45:17.912Z,3.17
2023-04-15T19:47:45.393Z,4.10
2023-04-15T19:50:13.102Z,2.38
2023-04-15T19:52:43.177Z,2.17
2023-04-15T19:55:13.052Z,2.17
2023-04-15T19:57:41.121Z,2.35
2023-04-15T20:00:09.453Z,2.15
2023-04-15T20:02:37.248Z,4.32
2023-04-15T20:05:05.158Z,4.53
2023-04-15T20:07:32.830Z,1.63
2023-04-15T20:10:00.587Z,2.05
2023-04-15T20:12:49.679Z,3.90
2023-04-15T20:15:16.212Z,2.10
2023-04-15T20:17:43.673Z,2.97
2023-04-15T20:20:14.438Z,2.30
2023-04-15T20:22:41.781Z,5.30
2023-04-15T20:25:13.809Z,4.60
2023-04-15T20:27:41.172Z,4.00
2023-04-15T20:30:08.946Z,2.10
2023-04-15T20:32:36.805Z,2.40
2023-04-15T20:35:07.537Z,1.63
2023-04-15T20:37:36.571Z,3.70
2023-04-15T20:40:04.887Z,3.53
2023-04-15T20:42:35.550Z,4.25
2023-04-15T20:45:03.333Z,3.45
2023-04-15T20:47:31.542Z,3.55
2023-04-15T20:50:00.510Z,3.55
2023-04-15T20:52:28.452Z,1.52
2023-04-15T20:54:58.331Z,2.25
2023-04-15T20:57:26.440Z,3.08
2023-04-15T20:59:54.681Z,2.45
2023-04-15T21:02:24.790Z,2.88
2023-04-15T21:04:52.597Z,2.88
2023-04-15T21:07:20.535Z,2.97
2023-04-15T21:09:48.391Z,2.88
2023-04-15T21:12:16.140Z,2.45
2023-04-15T21:14:44.865Z,2.28
2023-04-15T21:17:12.180Z,1.88
2023-04-15T21:19:41.274Z,1.80
2023-04-15T21:22:11.657Z,1.50
2023-04-15T21:24:41.468Z,1.77
2023-04-15T21:27:10.189Z,1.60
2023-04-15T21:29:40.783Z,2.88
2023-04-15T21:32:08.580Z,1.40
2023-04-15T21:34:36.364Z,3.33
2023-04-15T21:37:03.876Z,2.33
2023-04-15T21:39:31.768Z,2.30
2023-04-15T21:42:01.336Z,2.53
2023-04-15T21:44:29.201Z,1.95
2023-04-15T21:46:59.242Z,3.33
2023-04-15T21:49:27.163Z,2.03
2023-04-15T21:51:55.555Z,1.98
2023-04-15T21:54:22.932Z,4.45
2023-04-15T21:56:52.668Z,2.17
2023-04-15T21:59:23.549Z,2.63
2023-04-15T22:01:52.956Z,4.13
2023-04-15T22:04:24.987Z,2.20
2023-04-15T22:06:53.859Z,3.30
2023-04-15T22:09:22.010Z,2.90
2023-04-15T22:11:50.018Z,3.38
2023-04-15T22:14:17.617Z,3.33
2023-04-15T22:16:45.189Z,3.28
2023-04-15T22:19:12.979Z,6.25
2023-04-15T22:21:45.656Z,2.25
2023-04-15T22:24:34.082Z,3.05
2023-04-15T22:27:02.392Z,2.65
2023-04-15T22:29:30.370Z,5.15
2023-04-15T22:31:58.277Z,3.95
2023-04-15T22:34:26.287Z,3.45
2023-04-15T22:36:54.101Z,3.95
2023-04-15T22:39:21.746Z,4.72
2023-04-15T22:41:51.884Z,2.70
2023-04-15T22:44:19.502Z,3.28
2023-04-15T22:46:47.157Z,4.78
2023-04-15T22:49:17.464Z,2.28
2023-04-15T22:51:45.187Z,4.57
2023-04-15T22:54:12.631Z,2.45
2023-04-15T22:56:40.312Z,3.75
2023-04-15T22:59:08.113Z,2.80
2023-04-15T23:01:36.253Z,5.05
2023-04-15T23:04:10.063Z,5.80
2023-04-15T23:06:52.167Z,1.88
2023-04-15T23:09:19.559Z,3.92
2023-04-15T23:11:48.370Z,2.10
2023-04-15T23:14:16.475Z,3.35
2023-04-15T23:16:44.120Z,4.80
2023-04-15T23:19:11.868Z,4.45
2023-04-15T23:21:44.319Z,4.20
2023-04-15T23:24:12.859Z,7.05
2023-04-15T23:26:41.112Z,3.22
2023-04-15T23:29:09.656Z,4.00
2023-04-15T23:31:37.338Z,4.80
2023-04-15T23:34:04.783Z,4.15
2023-04-15T23:36:37.100Z,6.18
2023-04-15T23:39:04.675Z,3.88
2023-04-15T23:41:32.012Z,6.20
2023-04-15T23:43:59.628Z,4.35
2023-04-15T23:46:27.617Z,8.38
2023-04-15T23:48:55.145Z,7.20
2023-04-15T23:51:22.580Z,3.55
2023-04-15T23:53:50.317Z,7.88
2023-04-15T23:56:18.103Z,5.57
2023-04-15T23:58:46.017Z,6.35
